sensor_id;sensor_type;location;lat;lon;timestamp;temperature;humidity
13049;DHT22;6591;51.446;5.404;2022-11-15T00:01:44;11.40;99.90
13049;DHT22;6591;51.446;5.404;2022-11-15T00:04:29;10.70;99.90
13049;DHT22;6591;51.446;5.404;2022-11-15T00:07:15;10.70;99.90
13049;DHT22;6591;51.446;5.404;2022-11-15T00:10:21;10.80;99.90
13049;DHT22;6591;51.446;5.404;2022-11-15T00:13:11;10.90;99.90
13049;DHT22;6591;51.446;5.404;2022-11-15T00:15:59;10.90;99.90
13049;DHT22;6591;51.446;5.404;2022-11-15T00:18:46;11.00;99.90
13049;DHT22;6591;51.446;5.404;2022-11-15T00:21:35;11.00;99.90
13049;DHT22;6591;51.446;5.404;2022-11-15T00:24:20;11.10;99.90
13049;DHT22;6591;51.446;5.404;2022-11-15T00:27:06;12.00;99.90
13049;DHT22;6591;51.446;5.404;2022-11-15T00:29:52;11.20;99.90
13049;DHT22;6591;51.446;5.404;2022-11-15T00:32:39;11.30;99.90
13049;DHT22;6591;51.446;5.404;2022-11-15T00:35:24;11.30;99.90
13049;DHT22;6591;51.446;5.404;2022-11-15T00:38:10;11.40;99.90
13049;DHT22;6591;51.446;5.404;2022-11-15T00:40:55;11.40;99.90
13049;DHT22;6591;51.446;5.404;2022-11-15T00:43:41;11.50;99.90
13049;DHT22;6591;51.446;5.404;2022-11-15T00:46:29;11.50;99.90
13049;DHT22;6591;51.446;5.404;2022-11-15T00:49:14;11.60;99.90
13049;DHT22;6591;51.446;5.404;2022-11-15T00:52:00;11.60;99.90
13049;DHT22;6591;51.446;5.404;2022-11-15T00:54:45;11.70;99.90
13049;DHT22;6591;51.446;5.404;2022-11-15T00:57:30;11.70;99.90
13049;DHT22;6591;51.446;5.404;2022-11-15T01:00:16;11.70;99.90
13049;DHT22;6591;51.446;5.404;2022-11-15T01:03:02;11.80;99.90
13049;DHT22;6591;51.446;5.404;2022-11-15T01:05:48;11.70;99.90
13049;DHT22;6591;51.446;5.404;2022-11-15T01:08:34;11.80;99.90
13049;DHT22;6591;51.446;5.404;2022-11-15T01:11:19;11.80;99.90
13049;DHT22;6591;51.446;5.404;2022-11-15T01:14:05;11.90;99.90
13049;DHT22;6591;51.446;5.404;2022-11-15T01:16:50;11.80;99.90
13049;DHT22;6591;51.446;5.404;2022-11-15T01:19:36;11.90;99.90
13049;DHT22;6591;51.446;5.404;2022-11-15T01:22:21;11.90;99.90
13049;DHT22;6591;51.446;5.404;2022-11-15T01:25:07;12.00;99.90
13049;DHT22;6591;51.446;5.404;2022-11-15T01:27:52;12.00;99.90
13049;DHT22;6591;51.446;5.404;2022-11-15T01:30:38;12.20;99.90
13049;DHT22;6591;51.446;5.404;2022-11-15T01:33:24;12.00;99.90
13049;DHT22;6591;51.446;5.404;2022-11-15T01:36:21;12.00;99.90
13049;DHT22;6591;51.446;5.404;2022-11-15T01:39:08;12.10;99.90
13049;DHT22;6591;51.446;5.404;2022-11-15T01:41:53;12.00;99.90
13049;DHT22;6591;51.446;5.404;2022-11-15T01:44:49;12.10;99.90
13049;DHT22;6591;51.446;5.404;2022-11-15T01:47:40;12.10;99.90
13049;DHT22;6591;51.446;5.404;2022-11-15T01:50:31;12.20;99.90
13049;DHT22;6591;51.446;5.404;2022-11-15T01:53:19;12.20;99.90
13049;DHT22;6591;51.446;5.404;2022-11-15T01:56:12;12.30;99.90
13049;DHT22;6591;51.446;5.404;2022-11-15T01:59:04;12.30;99.90
13049;DHT22;6591;51.446;5.404;2022-11-15T02:01:53;12.40;99.90
13049;DHT22;6591;51.446;5.404;2022-11-15T02:04:42;12.50;99.90
13049;DHT22;6591;51.446;5.404;2022-11-15T02:07:31;12.50;99.90
13049;DHT22;6591;51.446;5.404;2022-11-15T02:10:22;12.60;99.90
13049;DHT22;6591;51.446;5.404;2022-11-15T02:13:09;12.60;99.90
13049;DHT22;6591;51.446;5.404;2022-11-15T02:30:18;12.90;99.90
13049;DHT22;6591;51.446;5.404;2022-11-15T02:36:16;13.00;99.90
13049;DHT22;6591;51.446;5.404;2022-11-15T02:39:13;13.10;99.90
13049;DHT22;6591;51.446;5.404;2022-11-15T02:42:21;13.10;99.90
13049;DHT22;6591;51.446;5.404;2022-11-15T02:45:35;13.10;99.90
13049;DHT22;6591;51.446;5.404;2022-11-15T02:48:25;13.10;99.90
13049;DHT22;6591;51.446;5.404;2022-11-15T02:51:13;13.20;99.90
13049;DHT22;6591;51.446;5.404;2022-11-15T02:53:58;13.20;99.90
13049;DHT22;6591;51.446;5.404;2022-11-15T02:56:45;13.20;99.90
13049;DHT22;6591;51.446;5.404;2022-11-15T03:02:36;13.30;99.90
13049;DHT22;6591;51.446;5.404;2022-11-15T03:05:44;13.30;99.90
13049;DHT22;6591;51.446;5.404;2022-11-15T03:11:50;13.30;99.90
13049;DHT22;6591;51.446;5.404;2022-11-15T03:15:01;13.30;99.90
13049;DHT22;6591;51.446;5.404;2022-11-15T03:18:45;13.30;99.90
13049;DHT22;6591;51.446;5.404;2022-11-15T03:21:39;13.40;99.90
13049;DHT22;6591;51.446;5.404;2022-11-15T03:24:27;13.40;99.90
13049;DHT22;6591;51.446;5.404;2022-11-15T03:27:19;13.40;99.90
13049;DHT22;6591;51.446;5.404;2022-11-15T03:30:09;13.50;99.90
13049;DHT22;6591;51.446;5.404;2022-11-15T03:32:59;13.40;99.90
13049;DHT22;6591;51.446;5.404;2022-11-15T03:35:49;13.50;99.90
13049;DHT22;6591;51.446;5.404;2022-11-15T03:38:37;13.50;99.90
13049;DHT22;6591;51.446;5.404;2022-11-15T03:41:39;13.60;99.90
13049;DHT22;6591;51.446;5.404;2022-11-15T03:47:38;14.00;99.90
13049;DHT22;6591;51.446;5.404;2022-11-15T03:50:27;13.60;99.90
13049;DHT22;6591;51.446;5.404;2022-11-15T03:53:14;13.60;99.90
13049;DHT22;6591;51.446;5.404;2022-11-15T03:56:00;13.70;99.90
13049;DHT22;6591;51.446;5.404;2022-11-15T03:58:45;13.80;99.90
13049;DHT22;6591;51.446;5.404;2022-11-15T04:01:31;13.70;99.90
13049;DHT22;6591;51.446;5.404;2022-11-15T04:04:17;13.70;99.90
13049;DHT22;6591;51.446;5.404;2022-11-15T04:07:03;13.80;99.90
13049;DHT22;6591;51.446;5.404;2022-11-15T04:09:48;13.70;99.90
13049;DHT22;6591;51.446;5.404;2022-11-15T04:12:48;13.70;99.90
13049;DHT22;6591;51.446;5.404;2022-11-15T04:15:35;13.70;99.90
13049;DHT22;6591;51.446;5.404;2022-11-15T04:18:20;13.70;99.90
13049;DHT22;6591;51.446;5.404;2022-11-15T04:21:08;14.30;99.90
13049;DHT22;6591;51.446;5.404;2022-11-15T04:24:12;13.80;99.90
13049;DHT22;6591;51.446;5.404;2022-11-15T04:26:57;14.50;99.90
13049;DHT22;6591;51.446;5.404;2022-11-15T04:29:43;13.80;99.90
13049;DHT22;6591;51.446;5.404;2022-11-15T04:32:28;13.80;99.90
13049;DHT22;6591;51.446;5.404;2022-11-15T04:35:15;13.70;99.90
13049;DHT22;6591;51.446;5.404;2022-11-15T04:38:02;13.70;99.90
13049;DHT22;6591;51.446;5.404;2022-11-15T04:40:49;13.70;99.90
13049;DHT22;6591;51.446;5.404;2022-11-15T04:43:34;13.70;99.90
13049;DHT22;6591;51.446;5.404;2022-11-15T04:46:21;13.70;99.90
13049;DHT22;6591;51.446;5.404;2022-11-15T04:49:07;14.90;99.90
13049;DHT22;6591;51.446;5.404;2022-11-15T04:51:53;13.70;99.90
13049;DHT22;6591;51.446;5.404;2022-11-15T04:54:39;13.70;99.90
13049;DHT22;6591;51.446;5.404;2022-11-15T04:57:24;13.70;99.90
13049;DHT22;6591;51.446;5.404;2022-11-15T05:00:13;13.70;99.90
13049;DHT22;6591;51.446;5.404;2022-11-15T05:03:00;13.70;99.90
13049;DHT22;6591;51.446;5.404;2022-11-15T05:06:04;13.70;99.90
13049;DHT22;6591;51.446;5.404;2022-11-15T05:08:51;13.70;99.90
13049;DHT22;6591;51.446;5.404;2022-11-15T05:11:36;13.70;99.90
13049;DHT22;6591;51.446;5.404;2022-11-15T05:14:22;13.70;99.90
13049;DHT22;6591;51.446;5.404;2022-11-15T05:17:07;13.70;99.90
13049;DHT22;6591;51.446;5.404;2022-11-15T05:19:53;13.70;99.90
13049;DHT22;6591;51.446;5.404;2022-11-15T05:22:38;13.70;99.90
13049;DHT22;6591;51.446;5.404;2022-11-15T05:25:24;13.70;99.90
13049;DHT22;6591;51.446;5.404;2022-11-15T05:28:11;13.70;99.90
13049;DHT22;6591;51.446;5.404;2022-11-15T05:31:09;13.70;99.90
13049;DHT22;6591;51.446;5.404;2022-11-15T05:33:56;13.70;99.90
13049;DHT22;6591;51.446;5.404;2022-11-15T05:36:45;13.70;99.90
13049;DHT22;6591;51.446;5.404;2022-11-15T05:39:30;13.70;99.90
13049;DHT22;6591;51.446;5.404;2022-11-15T05:42:16;13.70;99.90
13049;DHT22;6591;51.446;5.404;2022-11-15T05:45:03;13.80;99.90
13049;DHT22;6591;51.446;5.404;2022-11-15T05:47:52;13.70;99.90
13049;DHT22;6591;51.446;5.404;2022-11-15T05:50:44;13.70;99.90
13049;DHT22;6591;51.446;5.404;2022-11-15T05:53:32;13.70;99.90
13049;DHT22;6591;51.446;5.404;2022-11-15T05:56:18;13.70;99.90
13049;DHT22;6591;51.446;5.404;2022-11-15T05:59:05;13.70;99.90
13049;DHT22;6591;51.446;5.404;2022-11-15T06:01:52;13.70;99.90
13049;DHT22;6591;51.446;5.404;2022-11-15T06:04:38;13.80;99.90
13049;DHT22;6591;51.446;5.404;2022-11-15T06:07:23;13.70;99.90
13049;DHT22;6591;51.446;5.404;2022-11-15T06:10:09;13.70;99.90
13049;DHT22;6591;51.446;5.404;2022-11-15T06:12:59;13.70;99.90
13049;DHT22;6591;51.446;5.404;2022-11-15T06:15:45;13.80;99.90
13049;DHT22;6591;51.446;5.404;2022-11-15T06:18:34;13.80;99.90
13049;DHT22;6591;51.446;5.404;2022-11-15T06:21:21;15.20;99.90
13049;DHT22;6591;51.446;5.404;2022-11-15T06:24:07;13.70;99.90
13049;DHT22;6591;51.446;5.404;2022-11-15T06:26:52;13.70;99.90
13049;DHT22;6591;51.446;5.404;2022-11-15T06:29:38;13.70;99.90
13049;DHT22;6591;51.446;5.404;2022-11-15T06:32:49;13.80;99.90
13049;DHT22;6591;51.446;5.404;2022-11-15T06:35:35;14.00;99.90
13049;DHT22;6591;51.446;5.404;2022-11-15T06:38:21;13.70;99.90
13049;DHT22;6591;51.446;5.404;2022-11-15T06:41:08;14.50;99.90
13049;DHT22;6591;51.446;5.404;2022-11-15T06:43:56;13.70;99.90
13049;DHT22;6591;51.446;5.404;2022-11-15T06:46:42;13.70;99.90
13049;DHT22;6591;51.446;5.404;2022-11-15T06:49:27;13.70;99.90
13049;DHT22;6591;51.446;5.404;2022-11-15T06:52:12;13.70;99.90
13049;DHT22;6591;51.446;5.404;2022-11-15T06:54:58;13.70;99.90
13049;DHT22;6591;51.446;5.404;2022-11-15T06:57:51;13.60;99.90
13049;DHT22;6591;51.446;5.404;2022-11-15T07:00:37;13.70;99.90
13049;DHT22;6591;51.446;5.404;2022-11-15T07:03:22;13.60;99.90
13049;DHT22;6591;51.446;5.404;2022-11-15T07:06:09;13.70;99.90
13049;DHT22;6591;51.446;5.404;2022-11-15T07:08:55;13.60;99.90
13049;DHT22;6591;51.446;5.404;2022-11-15T07:11:40;13.60;99.90
13049;DHT22;6591;51.446;5.404;2022-11-15T07:14:26;13.80;99.90
13049;DHT22;6591;51.446;5.404;2022-11-15T07:17:11;13.50;99.90
13049;DHT22;6591;51.446;5.404;2022-11-15T07:19:56;13.50;99.90
13049;DHT22;6591;51.446;5.404;2022-11-15T07:22:42;13.60;99.90
13049;DHT22;6591;51.446;5.404;2022-11-15T07:25:28;12.40;99.90
13049;DHT22;6591;51.446;5.404;2022-11-15T07:28:14;13.50;99.90
13049;DHT22;6591;51.446;5.404;2022-11-15T07:31:07;13.50;99.90
13049;DHT22;6591;51.446;5.404;2022-11-15T07:33:53;13.50;99.90
13049;DHT22;6591;51.446;5.404;2022-11-15T07:36:40;13.50;99.90
13049;DHT22;6591;51.446;5.404;2022-11-15T07:39:25;13.50;99.90
13049;DHT22;6591;51.446;5.404;2022-11-15T07:42:11;13.50;99.90
13049;DHT22;6591;51.446;5.404;2022-11-15T07:45:15;13.50;99.90
13049;DHT22;6591;51.446;5.404;2022-11-15T07:48:01;13.50;99.90
13049;DHT22;6591;51.446;5.404;2022-11-15T07:50:47;13.40;99.90
13049;DHT22;6591;51.446;5.404;2022-11-15T07:53:32;13.40;99.90
13049;DHT22;6591;51.446;5.404;2022-11-15T07:56:18;13.30;99.90
13049;DHT22;6591;51.446;5.404;2022-11-15T07:59:05;13.30;99.90
13049;DHT22;6591;51.446;5.404;2022-11-15T08:01:51;13.20;99.90
13049;DHT22;6591;51.446;5.404;2022-11-15T08:04:37;13.20;99.90
13049;DHT22;6591;51.446;5.404;2022-11-15T08:07:22;13.20;99.90
13049;DHT22;6591;51.446;5.404;2022-11-15T08:10:08;13.20;99.90
13049;DHT22;6591;51.446;5.404;2022-11-15T08:13:05;13.20;99.90
13049;DHT22;6591;51.446;5.404;2022-11-15T08:15:57;13.20;99.90
13049;DHT22;6591;51.446;5.404;2022-11-15T08:18:45;13.20;99.90
13049;DHT22;6591;51.446;5.404;2022-11-15T08:21:30;13.10;99.90
13049;DHT22;6591;51.446;5.404;2022-11-15T08:24:16;13.10;99.90
13049;DHT22;6591;51.446;5.404;2022-11-15T08:27:01;13.10;99.90
13049;DHT22;6591;51.446;5.404;2022-11-15T08:29:48;13.10;99.90
13049;DHT22;6591;51.446;5.404;2022-11-15T08:32:34;13.10;99.90
13049;DHT22;6591;51.446;5.404;2022-11-15T08:35:20;13.10;99.90
13049;DHT22;6591;51.446;5.404;2022-11-15T08:38:12;13.10;99.90
13049;DHT22;6591;51.446;5.404;2022-11-15T08:41:03;13.10;99.90
13049;DHT22;6591;51.446;5.404;2022-11-15T08:43:49;13.10;99.90
13049;DHT22;6591;51.446;5.404;2022-11-15T08:46:34;13.20;99.90
13049;DHT22;6591;51.446;5.404;2022-11-15T08:49:20;13.20;99.90
13049;DHT22;6591;51.446;5.404;2022-11-15T08:52:06;13.30;99.90
13049;DHT22;6591;51.446;5.404;2022-11-15T08:54:52;13.40;99.90
13049;DHT22;6591;51.446;5.404;2022-11-15T08:57:38;13.50;99.90
13049;DHT22;6591;51.446;5.404;2022-11-15T09:00:23;13.60;99.90
13049;DHT22;6591;51.446;5.404;2022-11-15T09:03:09;13.70;99.90
13049;DHT22;6591;51.446;5.404;2022-11-15T09:05:56;13.80;99.90
13049;DHT22;6591;51.446;5.404;2022-11-15T09:08:43;13.90;99.90
13049;DHT22;6591;51.446;5.404;2022-11-15T09:11:32;14.00;99.90
13049;DHT22;6591;51.446;5.404;2022-11-15T09:14:18;14.00;99.90
13049;DHT22;6591;51.446;5.404;2022-11-15T09:17:03;14.10;99.90
13049;DHT22;6591;51.446;5.404;2022-11-15T09:19:49;14.20;99.90
13049;DHT22;6591;51.446;5.404;2022-11-15T09:22:35;14.30;99.90
13049;DHT22;6591;51.446;5.404;2022-11-15T09:25:21;14.30;99.90
13049;DHT22;6591;51.446;5.404;2022-11-15T09:28:08;14.40;99.90
13049;DHT22;6591;51.446;5.404;2022-11-15T09:30:58;14.50;99.90
13049;DHT22;6591;51.446;5.404;2022-11-15T09:33:47;14.50;99.90
13049;DHT22;6591;51.446;5.404;2022-11-15T09:36:33;14.60;99.90
13049;DHT22;6591;51.446;5.404;2022-11-15T09:39:18;14.70;99.90
13049;DHT22;6591;51.446;5.404;2022-11-15T09:45:37;14.80;99.90
13049;DHT22;6591;51.446;5.404;2022-11-15T09:48:51;14.80;99.90
13049;DHT22;6591;51.446;5.404;2022-11-15T09:51:34;14.90;99.90
13049;DHT22;6591;51.446;5.404;2022-11-15T09:54:32;14.90;99.90
13049;DHT22;6591;51.446;5.404;2022-11-15T10:03:14;14.90;99.90
13049;DHT22;6591;51.446;5.404;2022-11-15T10:05:48;14.90;99.90
13049;DHT22;6591;51.446;5.404;2022-11-15T10:11:35;14.90;99.90
13049;DHT22;6591;51.446;5.404;2022-11-15T10:14:11;14.90;99.90
13049;DHT22;6591;51.446;5.404;2022-11-15T10:19:34;15.10;99.90
13049;DHT22;6591;51.446;5.404;2022-11-15T10:22:27;15.00;99.90
13049;DHT22;6591;51.446;5.404;2022-11-15T10:25:12;15.10;99.90
13049;DHT22;6591;51.446;5.404;2022-11-15T10:27:56;15.10;99.90
13049;DHT22;6591;51.446;5.404;2022-11-15T10:30:40;15.10;99.90
13049;DHT22;6591;51.446;5.404;2022-11-15T10:35:46;16.10;99.90
13049;DHT22;6591;51.446;5.404;2022-11-15T10:38:13;15.00;99.90
13049;DHT22;6591;51.446;5.404;2022-11-15T10:40:41;14.90;99.90
13049;DHT22;6591;51.446;5.404;2022-11-15T10:45:37;14.80;99.90
13049;DHT22;6591;51.446;5.404;2022-11-15T10:50:46;14.80;99.90
13049;DHT22;6591;51.446;5.404;2022-11-15T10:53:31;14.80;99.90
13049;DHT22;6591;51.446;5.404;2022-11-15T10:56:12;14.80;99.90
13049;DHT22;6591;51.446;5.404;2022-11-15T10:58:44;14.80;99.90
13049;DHT22;6591;51.446;5.404;2022-11-15T11:01:20;14.90;99.90
13049;DHT22;6591;51.446;5.404;2022-11-15T11:04:08;15.00;99.90
13049;DHT22;6591;51.446;5.404;2022-11-15T11:06:56;15.10;99.90
13049;DHT22;6591;51.446;5.404;2022-11-15T11:09:36;15.20;99.90
13049;DHT22;6591;51.446;5.404;2022-11-15T11:12:11;15.40;99.90
13049;DHT22;6591;51.446;5.404;2022-11-15T11:14:39;15.50;99.90
13049;DHT22;6591;51.446;5.404;2022-11-15T11:20:20;15.70;99.90
13049;DHT22;6591;51.446;5.404;2022-11-15T11:23:03;15.80;99.90
13049;DHT22;6591;51.446;5.404;2022-11-15T11:29:33;17.30;99.90
13049;DHT22;6591;51.446;5.404;2022-11-15T11:35:32;16.20;99.90
13049;DHT22;6591;51.446;5.404;2022-11-15T11:38:38;16.40;99.90
13049;DHT22;6591;51.446;5.404;2022-11-15T11:49:55;16.60;99.90
13049;DHT22;6591;51.446;5.404;2022-11-15T11:52:34;17.50;99.90
13049;DHT22;6591;51.446;5.404;2022-11-15T12:01:13;17.00;99.90
13049;DHT22;6591;51.446;5.404;2022-11-15T12:06:37;17.10;99.90
13049;DHT22;6591;51.446;5.404;2022-11-15T12:09:23;17.10;99.90
13049;DHT22;6591;51.446;5.404;2022-11-15T12:12:23;17.20;99.90
13049;DHT22;6591;51.446;5.404;2022-11-15T12:17:36;17.20;99.90
13049;DHT22;6591;51.446;5.404;2022-11-15T12:20:18;17.20;99.90
13049;DHT22;6591;51.446;5.404;2022-11-15T12:22:58;17.30;99.90
13049;DHT22;6591;51.446;5.404;2022-11-15T12:25:52;17.30;99.90
13049;DHT22;6591;51.446;5.404;2022-11-15T12:28:38;17.30;99.90
13049;DHT22;6591;51.446;5.404;2022-11-15T12:31:50;17.30;99.90
13049;DHT22;6591;51.446;5.404;2022-11-15T12:36:50;17.20;99.90
13049;DHT22;6591;51.446;5.404;2022-11-15T12:39:18;17.20;99.90
13049;DHT22;6591;51.446;5.404;2022-11-15T12:59:57;16.90;99.90
13049;DHT22;6591;51.446;5.404;2022-11-15T13:02:34;16.90;99.90
13049;DHT22;6591;51.446;5.404;2022-11-15T13:13:07;16.80;99.90
13049;DHT22;6591;51.446;5.404;2022-11-15T13:15:56;16.80;99.90
13049;DHT22;6591;51.446;5.404;2022-11-15T13:18:36;16.80;99.90
13049;DHT22;6591;51.446;5.404;2022-11-15T13:21:23;16.80;99.90
13049;DHT22;6591;51.446;5.404;2022-11-15T13:24:14;16.80;99.90
13049;DHT22;6591;51.446;5.404;2022-11-15T13:26:43;16.80;99.90
13049;DHT22;6591;51.446;5.404;2022-11-15T13:29:18;16.90;99.90
13049;DHT22;6591;51.446;5.404;2022-11-15T13:31:46;16.90;99.90
13049;DHT22;6591;51.446;5.404;2022-11-15T13:34:31;16.90;99.90
13049;DHT22;6591;51.446;5.404;2022-11-15T13:39:49;18.30;99.90
13049;DHT22;6591;51.446;5.404;2022-11-15T13:42:17;17.00;99.90
13049;DHT22;6591;51.446;5.404;2022-11-15T13:45:04;17.00;99.90
13049;DHT22;6591;51.446;5.404;2022-11-15T13:47:31;17.00;99.90
13049;DHT22;6591;51.446;5.404;2022-11-15T13:49:59;17.00;99.90
13049;DHT22;6591;51.446;5.404;2022-11-15T13:52:33;17.00;99.90
13049;DHT22;6591;51.446;5.404;2022-11-15T13:55:11;17.00;99.90
13049;DHT22;6591;51.446;5.404;2022-11-15T14:00:32;16.90;99.90
13049;DHT22;6591;51.446;5.404;2022-11-15T14:06:08;16.80;99.90
13049;DHT22;6591;51.446;5.404;2022-11-15T14:08:39;16.70;99.90
13049;DHT22;6591;51.446;5.404;2022-11-15T14:11:16;16.70;99.90
13049;DHT22;6591;51.446;5.404;2022-11-15T14:14:10;16.60;99.90
13049;DHT22;6591;51.446;5.404;2022-11-15T14:16:43;16.60;99.90
13049;DHT22;6591;51.446;5.404;2022-11-15T14:24:44;16.50;99.90
13049;DHT22;6591;51.446;5.404;2022-11-15T14:27:27;16.50;99.90
13049;DHT22;6591;51.446;5.404;2022-11-15T14:29:55;16.40;99.90
13049;DHT22;6591;51.446;5.404;2022-11-15T14:32:24;16.40;99.90
13049;DHT22;6591;51.446;5.404;2022-11-15T14:35:01;16.50;99.90
13049;DHT22;6591;51.446;5.404;2022-11-15T14:37:31;16.30;99.90
13049;DHT22;6591;51.446;5.404;2022-11-15T14:40:04;16.40;99.90
13049;DHT22;6591;51.446;5.404;2022-11-15T14:42:32;16.30;99.90
13049;DHT22;6591;51.446;5.404;2022-11-15T14:44:59;16.20;99.90
13049;DHT22;6591;51.446;5.404;2022-11-15T14:47:26;16.20;99.90
13049;DHT22;6591;51.446;5.404;2022-11-15T14:49:53;16.20;99.90
13049;DHT22;6591;51.446;5.404;2022-11-15T14:52:30;16.10;99.90
13049;DHT22;6591;51.446;5.404;2022-11-15T14:55:02;16.10;99.90
13049;DHT22;6591;51.446;5.404;2022-11-15T14:57:36;16.10;99.90
13049;DHT22;6591;51.446;5.404;2022-11-15T15:00:04;16.00;99.90
13049;DHT22;6591;51.446;5.404;2022-11-15T15:02:39;16.00;99.90
13049;DHT22;6591;51.446;5.404;2022-11-15T15:05:15;15.90;99.90
13049;DHT22;6591;51.446;5.404;2022-11-15T15:07:44;15.90;99.90
13049;DHT22;6591;51.446;5.404;2022-11-15T15:10:12;15.90;99.90
13049;DHT22;6591;51.446;5.404;2022-11-15T15:13:00;15.90;99.90
13049;DHT22;6591;51.446;5.404;2022-11-15T15:15:35;15.80;99.90
13049;DHT22;6591;51.446;5.404;2022-11-15T15:18:04;15.80;99.90
13049;DHT22;6591;51.446;5.404;2022-11-15T15:20:32;15.80;99.90
13049;DHT22;6591;51.446;5.404;2022-11-15T15:22:59;15.70;99.90
13049;DHT22;6591;51.446;5.404;2022-11-15T15:25:32;15.70;99.90
13049;DHT22;6591;51.446;5.404;2022-11-15T15:28:01;15.70;99.90
13049;DHT22;6591;51.446;5.404;2022-11-15T15:30:30;15.80;99.90
13049;DHT22;6591;51.446;5.404;2022-11-15T15:32:57;15.70;99.90
13049;DHT22;6591;51.446;5.404;2022-11-15T15:35:29;16.60;99.90
13049;DHT22;6591;51.446;5.404;2022-11-15T15:37:58;15.60;99.90
13049;DHT22;6591;51.446;5.404;2022-11-15T15:40:28;15.60;99.90
13049;DHT22;6591;51.446;5.404;2022-11-15T15:42:56;15.50;99.90
13049;DHT22;6591;51.446;5.404;2022-11-15T15:45:25;15.50;99.90
13049;DHT22;6591;51.446;5.404;2022-11-15T15:47:53;15.50;99.90
13049;DHT22;6591;51.446;5.404;2022-11-15T15:50:27;16.00;99.90
13049;DHT22;6591;51.446;5.404;2022-11-15T15:52:58;15.50;99.90
13049;DHT22;6591;51.446;5.404;2022-11-15T15:55:27;15.40;99.90
13049;DHT22;6591;51.446;5.404;2022-11-15T15:57:54;15.40;99.90
13049;DHT22;6591;51.446;5.404;2022-11-15T16:00:23;15.40;99.90
13049;DHT22;6591;51.446;5.404;2022-11-15T16:02:52;15.40;99.90
13049;DHT22;6591;51.446;5.404;2022-11-15T16:05:20;15.40;99.90
13049;DHT22;6591;51.446;5.404;2022-11-15T16:07:48;15.40;99.90
13049;DHT22;6591;51.446;5.404;2022-11-15T16:10:24;15.40;99.90
13049;DHT22;6591;51.446;5.404;2022-11-15T16:12:54;15.30;99.90
13049;DHT22;6591;51.446;5.404;2022-11-15T16:15:25;15.30;99.90
13049;DHT22;6591;51.446;5.404;2022-11-15T16:17:55;15.30;99.90
13049;DHT22;6591;51.446;5.404;2022-11-15T16:23:03;15.20;99.90
13049;DHT22;6591;51.446;5.404;2022-11-15T16:25:44;15.20;99.90
13049;DHT22;6591;51.446;5.404;2022-11-15T16:28:30;15.10;99.90
13049;DHT22;6591;51.446;5.404;2022-11-15T16:31:09;15.00;99.90
13049;DHT22;6591;51.446;5.404;2022-11-15T16:33:37;15.00;99.90
13049;DHT22;6591;51.446;5.404;2022-11-15T16:36:06;14.90;99.90
13049;DHT22;6591;51.446;5.404;2022-11-15T16:38:44;14.80;99.90
13049;DHT22;6591;51.446;5.404;2022-11-15T16:41:11;14.80;99.90
13049;DHT22;6591;51.446;5.404;2022-11-15T16:43:38;14.70;99.90
13049;DHT22;6591;51.446;5.404;2022-11-15T16:46:20;14.60;99.90
13049;DHT22;6591;51.446;5.404;2022-11-15T16:48:50;14.60;99.90
13049;DHT22;6591;51.446;5.404;2022-11-15T16:51:17;14.50;99.90
13049;DHT22;6591;51.446;5.404;2022-11-15T16:53:44;14.50;99.90
13049;DHT22;6591;51.446;5.404;2022-11-15T16:56:24;14.40;99.90
13049;DHT22;6591;51.446;5.404;2022-11-15T16:58:53;14.40;99.90
13049;DHT22;6591;51.446;5.404;2022-11-15T17:01:35;15.40;99.90
13049;DHT22;6591;51.446;5.404;2022-11-15T17:04:12;14.20;99.90
13049;DHT22;6591;51.446;5.404;2022-11-15T17:06:41;14.20;99.90
13049;DHT22;6591;51.446;5.404;2022-11-15T17:09:12;14.20;99.90
13049;DHT22;6591;51.446;5.404;2022-11-15T17:11:44;14.10;99.90
13049;DHT22;6591;51.446;5.404;2022-11-15T17:14:11;14.30;99.90
13049;DHT22;6591;51.446;5.404;2022-11-15T17:16:39;14.10;99.90
13049;DHT22;6591;51.446;5.404;2022-11-15T17:19:16;14.10;99.90
13049;DHT22;6591;51.446;5.404;2022-11-15T17:21:46;14.00;99.90
13049;DHT22;6591;51.446;5.404;2022-11-15T17:24:15;14.50;99.90
13049;DHT22;6591;51.446;5.404;2022-11-15T17:26:42;13.90;99.90
13049;DHT22;6591;51.446;5.404;2022-11-15T17:29:09;14.80;99.90
13049;DHT22;6591;51.446;5.404;2022-11-15T17:31:37;13.90;99.90
13049;DHT22;6591;51.446;5.404;2022-11-15T17:34:05;15.00;99.90
13049;DHT22;6591;51.446;5.404;2022-11-15T17:36:33;13.80;99.90
13049;DHT22;6591;51.446;5.404;2022-11-15T17:39:01;13.80;99.90
13049;DHT22;6591;51.446;5.404;2022-11-15T17:41:29;13.80;99.90
13049;DHT22;6591;51.446;5.404;2022-11-15T17:43:57;13.80;99.90
13049;DHT22;6591;51.446;5.404;2022-11-15T17:46:26;13.70;99.90
13049;DHT22;6591;51.446;5.404;2022-11-15T17:48:55;13.70;99.90
13049;DHT22;6591;51.446;5.404;2022-11-15T17:51:23;13.70;99.90
13049;DHT22;6591;51.446;5.404;2022-11-15T17:53:50;13.70;99.90
13049;DHT22;6591;51.446;5.404;2022-11-15T17:56:22;13.70;99.90
13049;DHT22;6591;51.446;5.404;2022-11-15T17:58:56;14.30;99.90
13049;DHT22;6591;51.446;5.404;2022-11-15T18:01:29;13.60;99.90
13049;DHT22;6591;51.446;5.404;2022-11-15T18:03:59;13.60;99.90
13049;DHT22;6591;51.446;5.404;2022-11-15T18:06:33;13.60;99.90
13049;DHT22;6591;51.446;5.404;2022-11-15T18:09:01;13.50;99.90
13049;DHT22;6591;51.446;5.404;2022-11-15T18:11:32;13.50;99.90
13049;DHT22;6591;51.446;5.404;2022-11-15T18:14:02;13.50;99.90
13049;DHT22;6591;51.446;5.404;2022-11-15T18:16:33;13.50;99.90
13049;DHT22;6591;51.446;5.404;2022-11-15T18:19:02;13.50;99.90
13049;DHT22;6591;51.446;5.404;2022-11-15T18:21:36;13.50;99.90
13049;DHT22;6591;51.446;5.404;2022-11-15T18:24:27;13.50;99.90
13049;DHT22;6591;51.446;5.404;2022-11-15T18:26:56;13.50;99.90
13049;DHT22;6591;51.446;5.404;2022-11-15T18:29:24;13.50;99.90
13049;DHT22;6591;51.446;5.404;2022-11-15T18:31:52;13.50;99.90
13049;DHT22;6591;51.446;5.404;2022-11-15T18:34:24;13.50;99.90
13049;DHT22;6591;51.446;5.404;2022-11-15T20:48:25;14.10;99.90
13049;DHT22;6591;51.446;5.404;2022-11-15T20:51:05;14.10;99.90
13049;DHT22;6591;51.446;5.404;2022-11-15T20:53:35;14.10;99.90
13049;DHT22;6591;51.446;5.404;2022-11-15T20:56:09;14.10;99.90
13049;DHT22;6591;51.446;5.404;2022-11-15T20:58:40;14.10;99.90
13049;DHT22;6591;51.446;5.404;2022-11-15T21:01:10;14.10;99.90
13049;DHT22;6591;51.446;5.404;2022-11-15T21:03:40;14.10;99.90
13049;DHT22;6591;51.446;5.404;2022-11-15T21:06:07;14.10;99.90
13049;DHT22;6591;51.446;5.404;2022-11-15T21:08:35;14.10;99.90
13049;DHT22;6591;51.446;5.404;2022-11-15T21:11:23;14.10;99.90
13049;DHT22;6591;51.446;5.404;2022-11-15T21:14:09;14.50;99.90
13049;DHT22;6591;51.446;5.404;2022-11-15T21:16:36;14.10;99.90
13049;DHT22;6591;51.446;5.404;2022-11-15T21:19:04;14.20;99.90
13049;DHT22;6591;51.446;5.404;2022-11-15T21:21:32;14.10;99.90
13049;DHT22;6591;51.446;5.404;2022-11-15T21:24:03;14.20;99.90
13049;DHT22;6591;51.446;5.404;2022-11-15T21:26:32;14.20;99.90
13049;DHT22;6591;51.446;5.404;2022-11-15T21:29:00;14.20;99.90
13049;DHT22;6591;51.446;5.404;2022-11-15T21:31:28;14.70;99.90
13049;DHT22;6591;51.446;5.404;2022-11-15T21:33:55;14.60;99.90